Time;durP1;ratioP1;P1;durP2;ratioP2;P2;SDS_P1;SDS_P2;PMS_P1;PMS_P2;Temp;Humidity;BMP_temperature;BMP_pressure;BME280_temperature;BME280_humidity;BME280_pressure;Samples;Min_cycle;Max_cycle;Signal;HPM_P1;HPM_P2
2021/11/29 00:01:48;;;;;;;13.65;12.35;;;;;;;;;;4985845;28;24420;-61
2021/11/29 00:04:14;;;;;;;14.40;13.10;;;;;;;;;;4981568;28;24440;-61
2021/11/29 00:06:39;;;;;;;12.85;11.57;;;;;;;;;;4981586;28;24417;-60
2021/11/29 00:09:04;;;;;;;14.37;12.97;;;;;;;;;;5001772;28;24399;-60
2021/11/29 00:11:30;;;;;;;14.20;12.87;;;;;;;;;;4984569;28;24432;-61
2021/11/29 00:13:55;;;;;;;13.83;12.47;;;;;;;;;;4982557;28;24412;-60
2021/11/29 00:16:20;;;;;;;14.03;12.67;;;;;;;;;;4982542;28;24409;-60
2021/11/29 00:18:45;;;;;;;14.60;13.20;;;;;;;;;;4979355;28;24412;-61
2021/11/29 00:21:12;;;;;;;13.98;12.57;;;;;;;;;;4978060;28;24413;-60
2021/11/29 00:23:38;;;;;;;13.68;12.48;;;;;;;;;;4987250;28;25179;-61
2021/11/29 00:26:03;;;;;;;14.73;13.23;;;;;;;;;;4981599;28;24428;-61
2021/11/29 00:28:28;;;;;;;14.23;12.90;;;;;;;;;;4980974;28;24538;-61
2021/11/29 00:30:53;;;;;;;14.52;13.13;;;;;;;;;;4979961;28;24393;-61
2021/11/29 00:33:19;;;;;;;14.03;12.63;;;;;;;;;;4986892;28;25002;-60
2021/11/29 00:35:44;;;;;;;13.83;12.43;;;;;;;;;;4982984;28;24413;-60
2021/11/29 00:38:10;;;;;;;14.10;12.80;;;;;;;;;;4993028;28;24759;-61
2021/11/29 00:40:35;;;;;;;15.03;13.60;;;;;;;;;;4982292;28;24816;-61
2021/11/29 00:49:41;;;;;;;14.50;13.20;;;;;;;;;;4979389;28;24520;-61
2021/11/29 00:52:09;;;;;;;14.30;12.90;;;;;;;;;;4981988;28;24425;-59
2021/11/29 00:54:34;;;;;;;14.80;13.30;;;;;;;;;;4985479;28;24492;-60
2021/11/29 00:56:59;;;;;;;14.15;12.75;;;;;;;;;;4986586;28;24976;-60
2021/11/29 00:59:25;;;;;;;13.47;12.17;;;;;;;;;;4986967;28;24780;-60
2021/11/29 01:01:50;;;;;;;14.33;12.97;;;;;;;;;;4978324;28;24966;-60
2021/11/29 01:04:15;;;;;;;14.77;13.27;;;;;;;;;;4981000;28;24958;-60
2021/11/29 01:06:40;;;;;;;15.43;14.02;;;;;;;;;;4983775;28;24405;-60
2021/11/29 01:09:06;;;;;;;12.90;11.70;;;;;;;;;;4983564;28;24493;-60
2021/11/29 01:11:31;;;;;;;14.07;12.77;;;;;;;;;;4981323;28;25068;-60
2021/11/29 01:13:56;;;;;;;14.10;12.80;;;;;;;;;;4979398;28;24464;-61
2021/11/29 01:16:21;;;;;;;14.40;13.00;;;;;;;;;;4985443;28;24855;-60
2021/11/29 01:18:47;;;;;;;14.40;13.00;;;;;;;;;;4983389;28;24413;-60
2021/11/29 01:21:12;;;;;;;13.90;12.60;;;;;;;;;;4984704;28;25320;-61
2021/11/29 01:23:37;;;;;;;13.98;12.68;;;;;;;;;;4986431;28;24500;-60
2021/11/29 01:26:02;;;;;;;13.53;12.23;;;;;;;;;;4981016;28;25167;-60
2021/11/29 01:28:28;;;;;;;14.20;12.88;;;;;;;;;;4984267;28;25225;-60
2021/11/29 01:30:53;;;;;;;14.20;12.80;;;;;;;;;;4984848;28;24413;-61
2021/11/29 01:33:18;;;;;;;13.77;12.48;;;;;;;;;;4985835;28;24484;-61
2021/11/29 01:35:43;;;;;;;14.03;12.73;;;;;;;;;;4997388;28;24564;-61
2021/11/29 01:38:09;;;;;;;13.97;12.67;;;;;;;;;;4982658;28;24556;-61
2021/11/29 01:40:34;;;;;;;13.53;12.20;;;;;;;;;;4983658;28;24421;-60
2021/11/29 01:43:04;;;;;;;14.63;13.27;;;;;;;;;;4985757;28;24482;-60
2021/11/29 01:45:31;;;;;;;14.30;12.90;;;;;;;;;;4985826;28;24986;-61
2021/11/29 01:47:57;;;;;;;13.90;12.70;;;;;;;;;;4991992;28;24432;-60
2021/11/29 01:50:22;;;;;;;14.00;12.70;;;;;;;;;;4991807;28;24420;-61
2021/11/29 01:52:48;;;;;;;14.90;13.50;;;;;;;;;;4984197;28;24429;-61
2021/11/29 01:55:13;;;;;;;14.13;12.83;;;;;;;;;;4984800;28;24464;-60
2021/11/29 01:57:38;;;;;;;13.60;12.30;;;;;;;;;;4980520;28;24416;-61
2021/11/29 02:00:04;;;;;;;14.30;12.80;;;;;;;;;;4982564;28;24516;-61
2021/11/29 02:02:29;;;;;;;14.00;12.70;;;;;;;;;;4981705;28;24967;-61
2021/11/29 02:04:59;;;;;;;13.67;12.37;;;;;;;;;;4990192;28;24612;-61
2021/11/29 02:07:24;;;;;;;13.20;11.90;;;;;;;;;;4992583;28;24423;-60
2021/11/29 02:09:49;;;;;;;14.70;13.30;;;;;;;;;;4988097;28;24409;-61
2021/11/29 02:12:15;;;;;;;13.93;12.63;;;;;;;;;;4980501;28;24476;-61
2021/11/29 02:14:40;;;;;;;13.43;12.23;;;;;;;;;;4979979;28;24779;-61
2021/11/29 02:17:06;;;;;;;14.13;12.73;;;;;;;;;;4988266;28;24504;-60
2021/11/29 02:19:36;;;;;;;15.20;13.80;;;;;;;;;;4990366;28;24623;-61
2021/11/29 02:22:01;;;;;;;14.75;13.35;;;;;;;;;;4981672;28;24472;-61
2021/11/29 02:24:26;;;;;;;14.67;13.27;;;;;;;;;;4982556;28;25010;-61
2021/11/29 02:26:52;;;;;;;14.20;12.90;;;;;;;;;;4981570;28;25033;-60
2021/11/29 02:29:17;;;;;;;14.00;12.80;;;;;;;;;;4982936;28;24508;-61
2021/11/29 02:31:44;;;;;;;15.40;13.93;;;;;;;;;;4980121;28;24435;-61
2021/11/29 02:34:10;;;;;;;15.15;13.75;;;;;;;;;;4984606;28;24412;-60
2021/11/29 02:36:35;;;;;;;14.80;13.40;;;;;;;;;;4984320;28;24484;-61
2021/11/29 02:39:00;;;;;;;14.87;13.57;;;;;;;;;;4982395;28;24405;-60
2021/11/29 02:41:25;;;;;;;16.53;14.83;;;;;;;;;;4988976;28;24476;-60
2021/11/29 02:43:50;;;;;;;15.38;13.88;;;;;;;;;;4984549;28;24524;-61
2021/11/29 02:46:16;;;;;;;15.00;13.40;;;;;;;;;;4984437;28;24417;-61
2021/11/29 02:48:45;;;;;;;15.45;14.05;;;;;;;;;;4981949;28;24417;-61
2021/11/29 02:51:18;;;;;;;15.20;13.80;;;;;;;;;;4991445;28;24416;-60
2021/11/29 02:53:43;;;;;;;15.65;14.13;;;;;;;;;;4981573;28;24456;-61
2021/11/29 02:56:08;;;;;;;14.77;13.48;;;;;;;;;;4999501;28;24868;-61
2021/11/29 02:58:33;;;;;;;15.57;14.07;;;;;;;;;;4988061;28;24417;-61
2021/11/29 03:00:58;;;;;;;15.40;13.90;;;;;;;;;;4987201;28;24419;-61
2021/11/29 03:03:23;;;;;;;16.25;14.55;;;;;;;;;;4981616;28;24744;-61
2021/11/29 03:05:49;;;;;;;14.53;13.23;;;;;;;;;;4984018;28;24499;-61
2021/11/29 03:08:14;;;;;;;14.35;13.02;;;;;;;;;;4986398;28;25052;-61
2021/11/29 03:10:39;;;;;;;14.27;12.90;;;;;;;;;;4984047;28;24471;-61
2021/11/29 03:13:04;;;;;;;14.40;13.10;;;;;;;;;;4984422;28;24437;-61
2021/11/29 03:15:29;;;;;;;14.23;12.82;;;;;;;;;;4983779;28;24419;-61
2021/11/29 03:17:54;;;;;;;14.15;12.85;;;;;;;;;;4978531;28;24413;-60
2021/11/29 03:20:20;;;;;;;14.40;13.10;;;;;;;;;;4984612;28;24835;-61
2021/11/29 03:22:45;;;;;;;14.33;12.93;;;;;;;;;;4987301;28;24895;-61
2021/11/29 03:25:10;;;;;;;14.17;12.77;;;;;;;;;;4986473;28;24420;-60
2021/11/29 03:27:36;;;;;;;14.00;12.70;;;;;;;;;;4979855;28;24424;-61
2021/11/29 03:30:02;;;;;;;13.82;12.52;;;;;;;;;;4981743;28;24476;-61
2021/11/29 03:32:27;;;;;;;14.40;13.00;;;;;;;;;;4980444;28;24488;-61
2021/11/29 03:34:52;;;;;;;15.20;13.70;;;;;;;;;;4984353;28;24776;-61
2021/11/29 03:37:18;;;;;;;14.90;13.50;;;;;;;;;;4987832;28;25305;-61
2021/11/29 03:39:43;;;;;;;15.27;13.88;;;;;;;;;;4981960;28;24421;-60
2021/11/29 03:42:08;;;;;;;13.70;12.40;;;;;;;;;;4983917;28;24815;-60
2021/11/29 03:44:34;;;;;;;14.07;12.68;;;;;;;;;;4980046;28;24483;-60
2021/11/29 03:47:00;;;;;;;15.10;13.70;;;;;;;;;;4982514;28;25001;-61
2021/11/29 03:49:26;;;;;;;14.90;13.50;;;;;;;;;;4990792;28;24427;-61
2021/11/29 03:51:51;;;;;;;14.88;13.38;;;;;;;;;;4982278;28;24994;-60
2021/11/29 03:54:17;;;;;;;15.10;13.60;;;;;;;;;;4983481;28;24499;-60
2021/11/29 03:56:42;;;;;;;15.25;13.85;;;;;;;;;;4979219;28;24452;-60
2021/11/29 03:59:07;;;;;;;15.20;13.80;;;;;;;;;;4981128;28;24678;-61
2021/11/29 04:01:33;;;;;;;14.30;12.90;;;;;;;;;;4979850;28;24933;-61
2021/11/29 04:03:58;;;;;;;14.10;12.80;;;;;;;;;;4983350;28;25237;-61
2021/11/29 04:06:23;;;;;;;14.80;13.30;;;;;;;;;;4983443;28;24419;-60
2021/11/29 04:08:50;;;;;;;16.90;15.30;;;;;;;;;;4980760;28;24533;-61
2021/11/29 04:11:16;;;;;;;17.05;15.50;;;;;;;;;;4981230;28;24427;-61
2021/11/29 04:13:42;;;;;;;15.70;14.20;;;;;;;;;;4979750;28;24532;-61
2021/11/29 04:16:08;;;;;;;15.30;13.90;;;;;;;;;;4983104;28;24500;-61
2021/11/29 04:18:35;;;;;;;14.80;13.30;;;;;;;;;;4984445;28;25109;-61
2021/11/29 04:21:00;;;;;;;14.80;13.40;;;;;;;;;;4991238;28;25231;-61
2021/11/29 04:23:25;;;;;;;14.80;13.30;;;;;;;;;;4981345;28;24499;-60
2021/11/29 04:25:55;;;;;;;15.60;14.20;;;;;;;;;;4977993;28;24891;-61
2021/11/29 04:28:21;;;;;;;16.00;14.50;;;;;;;;;;4983864;28;24480;-61
2021/11/29 04:30:46;;;;;;;16.15;14.65;;;;;;;;;;4989991;28;24421;-60
2021/11/29 04:33:11;;;;;;;15.33;13.93;;;;;;;;;;4986664;28;25181;-60
2021/11/29 04:35:37;;;;;;;15.70;14.00;;;;;;;;;;4984111;28;25282;-61
2021/11/29 04:38:02;;;;;;;16.40;14.80;;;;;;;;;;4983110;28;24432;-60
2021/11/29 04:40:28;;;;;;;15.23;13.82;;;;;;;;;;4982460;28;25071;-60
2021/11/29 04:42:53;;;;;;;16.00;14.30;;;;;;;;;;4985664;28;24436;-60
2021/11/29 04:45:18;;;;;;;14.23;12.83;;;;;;;;;;4980879;28;24429;-60
2021/11/29 04:47:43;;;;;;;15.05;13.75;;;;;;;;;;4983211;28;25001;-60
2021/11/29 04:50:08;;;;;;;15.00;13.60;;;;;;;;;;4987681;28;24977;-60
2021/11/29 04:52:34;;;;;;;15.07;13.68;;;;;;;;;;4984447;28;24457;-60
2021/11/29 04:55:00;;;;;;;15.23;13.80;;;;;;;;;;4985130;28;25003;-60
2021/11/29 04:57:25;;;;;;;15.20;13.80;;;;;;;;;;4986804;28;24425;-61
2021/11/29 04:59:50;;;;;;;15.45;13.95;;;;;;;;;;4995927;28;24425;-60
2021/11/29 05:02:15;;;;;;;15.30;13.80;;;;;;;;;;4989534;28;24413;-60
2021/11/29 05:04:45;;;;;;;16.50;14.90;;;;;;;;;;4988324;28;24508;-60
2021/11/29 05:07:11;;;;;;;16.45;14.85;;;;;;;;;;4986801;28;24520;-60
2021/11/29 05:09:36;;;;;;;17.40;15.60;;;;;;;;;;4984921;28;24511;-60
2021/11/29 05:12:01;;;;;;;16.50;14.80;;;;;;;;;;4984686;28;24448;-60
2021/11/29 05:14:26;;;;;;;15.40;13.80;;;;;;;;;;4986542;28;24548;-60
2021/11/29 05:16:51;;;;;;;16.15;14.57;;;;;;;;;;4984953;28;24441;-61
2021/11/29 05:19:16;;;;;;;16.70;15.10;;;;;;;;;;4987215;28;24432;-60
2021/11/29 05:21:41;;;;;;;16.42;14.93;;;;;;;;;;4987603;28;25177;-61
2021/11/29 05:24:07;;;;;;;17.70;15.90;;;;;;;;;;4986602;28;24428;-61
2021/11/29 05:26:32;;;;;;;15.90;14.30;;;;;;;;;;4986132;28;24423;-61
2021/11/29 05:28:59;;;;;;;16.23;14.57;;;;;;;;;;4988160;28;25089;-61
2021/11/29 05:31:25;;;;;;;16.80;15.10;;;;;;;;;;4982239;28;24428;-61
2021/11/29 05:33:50;;;;;;;16.63;14.93;;;;;;;;;;4986293;28;24417;-61
2021/11/29 05:36:16;;;;;;;17.00;15.30;;;;;;;;;;4999581;28;24413;-60
2021/11/29 05:38:41;;;;;;;17.00;15.30;;;;;;;;;;4988542;28;25027;-61
2021/11/29 05:41:06;;;;;;;16.07;14.57;;;;;;;;;;4980728;28;25094;-61
2021/11/29 05:43:31;;;;;;;18.17;16.37;;;;;;;;;;4982433;28;24421;-61
2021/11/29 05:45:57;;;;;;;16.70;15.00;;;;;;;;;;4986032;28;24421;-61
2021/11/29 05:48:23;;;;;;;16.65;14.98;;;;;;;;;;4985764;28;24432;-61
2021/11/29 05:50:48;;;;;;;16.60;15.00;;;;;;;;;;4984046;28;24428;-61
2021/11/29 05:53:13;;;;;;;16.60;15.00;;;;;;;;;;4983172;28;24600;-60
2021/11/29 05:55:39;;;;;;;16.83;15.20;;;;;;;;;;4981468;28;24430;-61
2021/11/29 05:58:04;;;;;;;21.27;18.97;;;;;;;;;;4985335;28;24512;-60
2021/11/29 06:00:29;;;;;;;42.33;31.63;;;;;;;;;;4985407;28;24397;-60
2021/11/29 06:02:54;;;;;;;31.70;28.40;;;;;;;;;;4981910;28;24764;-61
2021/11/29 06:05:20;;;;;;;20.97;18.87;;;;;;;;;;4979322;28;24967;-60
2021/11/29 06:07:45;;;;;;;21.63;19.73;;;;;;;;;;4980810;28;24416;-60
2021/11/29 06:10:11;;;;;;;42.40;38.40;;;;;;;;;;4986043;28;25058;-60
2021/11/29 06:12:37;;;;;;;26.83;24.13;;;;;;;;;;4982989;28;24555;-60
2021/11/29 06:15:03;;;;;;;46.77;38.47;;;;;;;;;;4982809;28;24536;-61
2021/11/29 06:17:28;;;;;;;29.43;26.23;;;;;;;;;;4981244;28;24955;-60
2021/11/29 06:19:53;;;;;;;41.87;34.83;;;;;;;;;;4981715;28;24474;-60
2021/11/29 06:22:18;;;;;;;36.57;30.37;;;;;;;;;;4991369;28;24780;-60
2021/11/29 06:24:43;;;;;;;32.40;28.90;;;;;;;;;;4988347;28;24416;-61
2021/11/29 06:27:09;;;;;;;34.40;28.83;;;;;;;;;;4985828;28;25021;-60
2021/11/29 06:29:34;;;;;;;34.13;28.20;;;;;;;;;;4981141;28;24440;-60
2021/11/29 06:31:59;;;;;;;29.92;25.17;;;;;;;;;;4986536;28;24445;-60
2021/11/29 06:34:25;;;;;;;30.15;25.17;;;;;;;;;;4987226;28;24772;-60
2021/11/29 06:36:51;;;;;;;35.75;28.23;;;;;;;;;;4986065;28;24420;-60
2021/11/29 06:39:17;;;;;;;25.95;22.10;;;;;;;;;;4984836;28;24516;-60
2021/11/29 06:41:42;;;;;;;23.63;21.13;;;;;;;;;;4978213;28;25023;-60
2021/11/29 06:44:07;;;;;;;22.90;20.50;;;;;;;;;;4979808;28;24428;-60
2021/11/29 06:46:32;;;;;;;23.25;20.50;;;;;;;;;;4986076;28;24423;-60
2021/11/29 06:48:58;;;;;;;22.43;20.03;;;;;;;;;;4986504;28;24412;-60
2021/11/29 06:51:26;;;;;;;27.17;23.77;;;;;;;;;;4982489;28;24433;-60
2021/11/29 06:53:51;;;;;;;26.25;23.40;;;;;;;;;;4975424;28;24455;-60
2021/11/29 06:56:16;;;;;;;30.63;24.93;;;;;;;;;;4979195;28;24453;-60
2021/11/29 06:58:42;;;;;;;35.37;28.33;;;;;;;;;;4981980;28;24544;-60
2021/11/29 07:01:07;;;;;;;27.05;22.58;;;;;;;;;;4984629;28;24417;-60
2021/11/29 07:03:33;;;;;;;25.83;22.20;;;;;;;;;;4988128;28;25149;-60
2021/11/29 07:05:58;;;;;;;22.40;20.10;;;;;;;;;;4980352;28;24428;-60
2021/11/29 07:08:23;;;;;;;22.07;19.77;;;;;;;;;;4986380;28;24417;-60
2021/11/29 07:10:48;;;;;;;22.97;20.57;;;;;;;;;;4987935;28;24524;-60
2021/11/29 07:13:15;;;;;;;20.27;17.80;;;;;;;;;;4982347;28;24440;-60
2021/11/29 07:15:41;;;;;;;21.63;19.45;;;;;;;;;;4979218;28;24444;-61
2021/11/29 07:18:06;;;;;;;20.60;18.40;;;;;;;;;;4976005;28;24744;-61
2021/11/29 07:20:32;;;;;;;21.38;19.10;;;;;;;;;;4982910;28;24844;-61
2021/11/29 07:22:57;;;;;;;19.80;17.70;;;;;;;;;;4985873;28;24830;-61
2021/11/29 07:25:22;;;;;;;22.33;20.07;;;;;;;;;;4983597;28;24949;-61
2021/11/29 07:27:48;;;;;;;20.60;18.45;;;;;;;;;;4981086;28;24428;-61
2021/11/29 07:30:14;;;;;;;20.70;18.50;;;;;;;;;;4979113;28;24759;-61
2021/11/29 07:32:40;;;;;;;20.40;18.20;;;;;;;;;;4979060;28;24800;-61
2021/11/29 07:35:06;;;;;;;20.40;18.20;;;;;;;;;;4986371;28;24437;-60
2021/11/29 07:37:31;;;;;;;21.25;19.08;;;;;;;;;;4983037;28;24453;-60
2021/11/29 07:39:56;;;;;;;20.20;18.20;;;;;;;;;;4976058;28;24424;-60
2021/11/29 07:42:21;;;;;;;22.20;19.80;;;;;;;;;;4991721;28;24425;-61
2021/11/29 07:44:47;;;;;;;21.95;19.65;;;;;;;;;;4991674;28;24417;-61
2021/11/29 07:47:12;;;;;;;23.50;21.10;;;;;;;;;;4981917;28;24428;-61
2021/11/29 07:49:37;;;;;;;22.07;19.80;;;;;;;;;;4976805;28;24460;-61
2021/11/29 07:52:02;;;;;;;22.10;19.70;;;;;;;;;;4982668;28;24531;-61
2021/11/29 07:54:28;;;;;;;25.27;21.83;;;;;;;;;;4995889;28;24467;-61
2021/11/29 07:56:53;;;;;;;24.17;21.57;;;;;;;;;;4990155;28;25144;-61
2021/11/29 07:59:18;;;;;;;23.40;21.00;;;;;;;;;;4987329;28;24413;-61
2021/11/29 08:01:43;;;;;;;23.67;21.07;;;;;;;;;;4978076;28;24982;-62
2021/11/29 08:04:08;;;;;;;24.25;21.65;;;;;;;;;;4987619;28;24424;-61
2021/11/29 08:06:34;;;;;;;22.90;20.50;;;;;;;;;;4980714;28;24432;-61
2021/11/29 08:08:59;;;;;;;23.07;20.67;;;;;;;;;;4989182;28;24998;-61
2021/11/29 08:11:24;;;;;;;23.37;20.13;;;;;;;;;;4980898;28;25080;-61
2021/11/29 08:13:49;;;;;;;24.05;21.58;;;;;;;;;;4976264;28;24444;-61
2021/11/29 08:16:15;;;;;;;23.17;20.67;;;;;;;;;;4980153;28;24548;-61
2021/11/29 08:18:40;;;;;;;21.93;19.73;;;;;;;;;;4982736;28;24429;-61
2021/11/29 08:21:05;;;;;;;23.70;21.20;;;;;;;;;;4976401;28;24567;-61
2021/11/29 08:23:30;;;;;;;21.67;19.43;;;;;;;;;;4986536;28;24775;-61
2021/11/29 08:25:56;;;;;;;22.33;19.90;;;;;;;;;;4986125;28;24570;-61
2021/11/29 08:28:21;;;;;;;20.87;18.77;;;;;;;;;;5000569;28;24798;-61
2021/11/29 08:30:47;;;;;;;21.90;19.50;;;;;;;;;;4992854;28;24939;-61
2021/11/29 08:33:12;;;;;;;24.42;21.48;;;;;;;;;;4987772;28;24437;-61
2021/11/29 08:35:39;;;;;;;21.10;19.00;;;;;;;;;;4986138;28;24480;-61
2021/11/29 08:38:04;;;;;;;22.65;19.60;;;;;;;;;;4983707;28;24505;-61
2021/11/29 08:40:30;;;;;;;25.33;22.73;;;;;;;;;;4979919;28;24512;-61
2021/11/29 08:42:57;;;;;;;22.80;20.40;;;;;;;;;;4988008;28;24456;-61
2021/11/29 08:45:23;;;;;;;25.00;22.40;;;;;;;;;;4987947;28;24428;-61
2021/11/29 08:47:48;;;;;;;23.13;20.70;;;;;;;;;;4966526;28;24389;-61
2021/11/29 08:50:13;;;;;;;24.23;21.30;;;;;;;;;;4965988;28;24452;-61
2021/11/29 08:52:40;;;;;;;23.87;21.37;;;;;;;;;;4983822;28;24436;-61
2021/11/29 08:55:07;;;;;;;21.60;19.30;;;;;;;;;;4985701;28;24405;-62
2021/11/29 08:57:32;;;;;;;21.00;18.50;;;;;;;;;;4986825;28;24409;-61
2021/11/29 08:59:57;;;;;;;21.17;18.97;;;;;;;;;;4987597;28;24488;-61
2021/11/29 09:02:23;;;;;;;21.90;19.70;;;;;;;;;;4986492;28;24425;-62
2021/11/29 09:04:48;;;;;;;22.63;20.33;;;;;;;;;;4982151;28;24919;-61
2021/11/29 09:07:13;;;;;;;22.60;20.20;;;;;;;;;;4982112;28;24424;-61
2021/11/29 09:09:38;;;;;;;21.70;19.33;;;;;;;;;;4993782;28;24802;-62
2021/11/29 09:12:04;;;;;;;21.20;19.00;;;;;;;;;;4998827;28;24537;-61
2021/11/29 09:14:29;;;;;;;21.57;19.27;;;;;;;;;;4987240;28;24393;-62
2021/11/29 09:16:56;;;;;;;23.00;20.60;;;;;;;;;;4981947;28;24401;-61
2021/11/29 09:19:21;;;;;;;20.73;18.52;;;;;;;;;;4981966;28;25330;-61
2021/11/29 09:21:47;;;;;;;21.20;19.00;;;;;;;;;;4987044;28;24390;-60
2021/11/29 09:24:12;;;;;;;22.92;20.38;;;;;;;;;;4985199;28;25019;-60
2021/11/29 09:26:37;;;;;;;22.80;20.30;;;;;;;;;;4984919;28;24803;-60
2021/11/29 09:29:02;;;;;;;21.10;18.80;;;;;;;;;;4985479;28;24373;-60
2021/11/29 09:31:27;;;;;;;24.13;21.30;;;;;;;;;;4988345;28;24966;-60
2021/11/29 09:33:53;;;;;;;22.13;19.30;;;;;;;;;;4986455;28;24436;-60
2021/11/29 09:36:18;;;;;;;22.80;20.30;;;;;;;;;;4986451;28;24751;-60
2021/11/29 09:38:44;;;;;;;22.55;20.15;;;;;;;;;;4984844;28;24982;-60
2021/11/29 09:41:10;;;;;;;23.30;20.70;;;;;;;;;;4987596;28;24531;-60
2021/11/29 09:43:35;;;;;;;24.85;20.58;;;;;;;;;;4983457;28;24425;-60
2021/11/29 09:46:00;;;;;;;25.80;22.80;;;;;;;;;;4963911;28;24468;-59
2021/11/29 09:48:26;;;;;;;20.77;18.37;;;;;;;;;;4967352;28;24494;-59
2021/11/29 09:50:56;;;;;;;21.15;18.95;;;;;;;;;;4985982;28;25082;-60
2021/11/29 09:53:22;;;;;;;18.65;16.75;;;;;;;;;;4984938;28;24990;-61
2021/11/29 09:55:50;;;;;;;21.10;18.80;;;;;;;;;;4980844;28;24448;-61
2021/11/29 09:58:15;;;;;;;22.02;19.20;;;;;;;;;;4981894;28;25050;-61
2021/11/29 10:00:43;;;;;;;20.70;18.50;;;;;;;;;;4985766;28;24532;-61
2021/11/29 10:03:09;;;;;;;21.60;19.30;;;;;;;;;;4986356;28;24955;-60
2021/11/29 10:05:36;;;;;;;20.80;18.37;;;;;;;;;;4985795;28;24393;-60
2021/11/29 10:08:16;;;;;;;21.40;19.10;;;;;;;;;;4982528;28;24428;-61
2021/11/29 10:10:45;;;;;;;20.52;18.25;;;;;;;;;;4982792;28;24416;-61
2021/11/29 10:13:10;;;;;;;23.02;19.33;;;;;;;;;;4985680;28;24799;-60
2021/11/29 10:15:37;;;;;;;21.55;19.25;;;;;;;;;;4984134;28;24508;-61
2021/11/29 10:18:16;;;;;;;20.25;18.05;;;;;;;;;;4975603;28;24989;-61
2021/11/29 10:20:49;;;;;;;20.00;17.90;;;;;;;;;;4975389;28;24413;-61
2021/11/29 10:23:15;;;;;;;21.75;17.98;;;;;;;;;;4986257;28;25395;-61
2021/11/29 10:25:43;;;;;;;20.00;17.30;;;;;;;;;;4982746;28;24425;-61
2021/11/29 10:28:29;;;;;;;23.08;19.65;;;;;;;;;;4985572;28;24499;-61
2021/11/29 10:31:23;;;;;;;21.23;18.75;;;;;;;;;;4987167;28;24424;-61
2021/11/29 10:34:00;;;;;;;21.40;18.63;;;;;;;;;;4972383;28;24441;-61
2021/11/29 10:36:27;;;;;;;21.67;18.13;;;;;;;;;;4989516;28;24459;-61
2021/11/29 10:38:56;;;;;;;20.33;17.50;;;;;;;;;;4990917;28;24420;-60
2021/11/29 10:41:23;;;;;;;20.75;18.38;;;;;;;;;;4990868;28;24412;-61
2021/11/29 10:43:48;;;;;;;22.25;18.70;;;;;;;;;;4986333;28;24783;-61
2021/11/29 10:46:28;;;;;;;20.05;17.58;;;;;;;;;;4980201;28;24416;-61
2021/11/29 10:48:55;;;;;;;19.20;16.10;;;;;;;;;;5001213;28;24405;-61
2021/11/29 10:51:21;;;;;;;17.70;15.63;;;;;;;;;;4992281;28;24479;-61
2021/11/29 10:53:59;;;;;;;18.70;16.58;;;;;;;;;;4995742;28;24685;-61
2021/11/29 10:56:28;;;;;;;18.75;16.75;;;;;;;;;;4981229;28;24441;-61
2021/11/29 10:58:55;;;;;;;19.45;17.42;;;;;;;;;;4979889;28;24485;-61
2021/11/29 11:01:37;;;;;;;17.90;16.00;;;;;;;;;;4983109;28;24413;-61
2021/11/29 11:04:03;;;;;;;19.27;16.60;;;;;;;;;;4984758;28;24484;-61
2021/11/29 11:06:30;;;;;;;18.20;16.30;;;;;;;;;;4986237;28;24434;-61
2021/11/29 11:08:55;;;;;;;18.15;16.25;;;;;;;;;;4984023;28;25863;-61
2021/11/29 11:11:32;;;;;;;19.00;16.80;;;;;;;;;;4982296;28;24433;-61
2021/11/29 11:14:04;;;;;;;17.13;15.32;;;;;;;;;;4995364;28;24502;-62
2021/11/29 11:16:39;;;;;;;16.77;14.98;;;;;;;;;;5004184;28;24444;-61
2021/11/29 11:19:04;;;;;;;16.38;14.52;;;;;;;;;;5000700;28;24410;-61
2021/11/29 11:21:33;;;;;;;16.13;14.53;;;;;;;;;;4981423;28;24408;-61
2021/11/29 11:24:17;;;;;;;16.73;14.93;;;;;;;;;;4985314;28;24520;-60
2021/11/29 11:26:44;;;;;;;17.40;15.60;;;;;;;;;;4979399;28;24512;-61
2021/11/29 11:29:11;;;;;;;17.55;15.25;;;;;;;;;;4984154;28;24429;-62
2021/11/29 11:31:36;;;;;;;16.05;14.43;;;;;;;;;;4984213;28;24785;-61
2021/11/29 11:34:02;;;;;;;17.00;15.20;;;;;;;;;;4979492;28;25009;-61
2021/11/29 11:36:27;;;;;;;15.93;14.13;;;;;;;;;;4980088;28;24405;-61
2021/11/29 11:38:52;;;;;;;15.33;13.73;;;;;;;;;;4983056;28;24440;-61
2021/11/29 11:41:18;;;;;;;15.17;13.57;;;;;;;;;;4982817;28;24973;-61
2021/11/29 11:43:43;;;;;;;17.53;15.63;;;;;;;;;;4985255;28;24436;-60
2021/11/29 11:46:09;;;;;;;17.47;15.43;;;;;;;;;;4980334;28;24429;-61
2021/11/29 11:48:34;;;;;;;16.20;14.50;;;;;;;;;;4976433;28;25002;-61
2021/11/29 11:50:59;;;;;;;17.20;15.40;;;;;;;;;;4978083;28;24977;-61
2021/11/29 11:53:24;;;;;;;15.80;14.10;;;;;;;;;;4977107;28;24467;-60
2021/11/29 11:55:50;;;;;;;15.73;14.02;;;;;;;;;;4981065;28;25194;-60
2021/11/29 11:58:17;;;;;;;15.45;13.95;;;;;;;;;;4976782;28;24432;-60
2021/11/29 12:00:48;;;;;;;16.05;14.45;;;;;;;;;;4976239;28;24417;-59
2021/11/29 12:03:15;;;;;;;16.60;14.90;;;;;;;;;;4980003;28;24521;-60
2021/11/29 12:05:47;;;;;;;19.30;17.30;;;;;;;;;;4980686;28;24511;-59
2021/11/29 12:08:30;;;;;;;17.50;15.70;;;;;;;;;;4982800;28;24452;-60
2021/11/29 12:10:58;;;;;;;21.45;17.25;;;;;;;;;;4980372;28;24784;-60
2021/11/29 12:13:26;;;;;;;18.90;16.85;;;;;;;;;;4977369;28;24990;-60
2021/11/29 12:15:56;;;;;;;20.40;18.30;;;;;;;;;;4978189;28;24421;-60
2021/11/29 12:18:39;;;;;;;18.55;16.55;;;;;;;;;;4983454;28;24412;-60
2021/11/29 12:21:36;;;;;;;19.10;17.02;;;;;;;;;;4983690;28;24445;-62
2021/11/29 12:24:05;;;;;;;18.75;16.83;;;;;;;;;;4956934;28;24421;-60
2021/11/29 12:29:22;;;;;;;18.98;16.98;;;;;;;;;;4983502;28;25081;-60
2021/11/29 12:32:02;;;;;;;18.42;16.52;;;;;;;;;;4982131;28;24413;-61
2021/11/29 12:34:42;;;;;;;16.70;15.10;;;;;;;;;;4979215;28;24452;-60
2021/11/29 12:37:12;;;;;;;18.02;16.00;;;;;;;;;;4979968;28;24417;-61
2021/11/29 12:39:43;;;;;;;17.73;15.90;;;;;;;;;;4983751;28;25169;-60
2021/11/29 12:42:31;;;;;;;17.48;15.75;;;;;;;;;;4984935;28;24452;-61
2021/11/29 12:44:57;;;;;;;17.00;15.20;;;;;;;;;;4982951;28;24826;-61
2021/11/29 12:47:23;;;;;;;16.77;14.73;;;;;;;;;;4979654;28;24413;-60
2021/11/29 12:49:48;;;;;;;16.80;15.10;;;;;;;;;;4977804;28;25094;-60
2021/11/29 12:52:32;;;;;;;15.07;13.57;;;;;;;;;;4981227;28;24994;-60
2021/11/29 12:54:57;;;;;;;15.20;13.63;;;;;;;;;;4985448;28;24421;-59
2021/11/29 12:57:25;;;;;;;13.70;12.40;;;;;;;;;;4985060;28;24420;-62
2021/11/29 12:59:54;;;;;;;15.20;13.70;;;;;;;;;;4995294;28;24400;-60
2021/11/29 13:02:34;;;;;;;14.37;13.07;;;;;;;;;;4984363;28;24775;-60
2021/11/29 13:04:59;;;;;;;15.30;13.80;;;;;;;;;;4983743;28;24464;-60
2021/11/29 13:07:45;;;;;;;14.55;13.15;;;;;;;;;;4983659;28;24405;-59
2021/11/29 13:10:30;;;;;;;15.45;13.95;;;;;;;;;;4986307;28;24624;-60
2021/11/29 13:13:14;;;;;;;13.90;12.50;;;;;;;;;;4986298;28;24525;-61
2021/11/29 13:15:48;;;;;;;14.77;13.27;;;;;;;;;;4981394;28;24962;-62
2021/11/29 13:18:33;;;;;;;15.35;13.85;;;;;;;;;;4984843;28;24471;-60
2021/11/29 13:21:00;;;;;;;14.73;13.23;;;;;;;;;;4986698;28;24493;-60
2021/11/29 13:23:25;;;;;;;15.52;14.02;;;;;;;;;;4982832;28;24990;-60
2021/11/29 13:25:50;;;;;;;15.35;13.85;;;;;;;;;;4982769;28;24429;-61
2021/11/29 13:28:16;;;;;;;14.53;13.13;;;;;;;;;;4986661;28;24865;-60
2021/11/29 13:30:43;;;;;;;13.97;12.60;;;;;;;;;;4982236;28;24413;-61
2021/11/29 13:33:08;;;;;;;13.50;12.20;;;;;;;;;;4994570;28;24978;-60
2021/11/29 13:35:34;;;;;;;14.45;13.07;;;;;;;;;;4982500;28;24436;-60
2021/11/29 13:37:59;;;;;;;14.70;13.20;;;;;;;;;;4979539;28;24456;-60
2021/11/29 13:40:25;;;;;;;14.10;12.70;;;;;;;;;;4983279;28;24482;-60
2021/11/29 13:42:54;;;;;;;13.60;12.30;;;;;;;;;;4988578;28;24784;-60
2021/11/29 13:45:20;;;;;;;14.88;13.25;;;;;;;;;;4986608;28;24389;-60
2021/11/29 13:47:50;;;;;;;14.68;13.15;;;;;;;;;;4978780;28;24443;-60
2021/11/29 13:50:17;;;;;;;14.73;13.30;;;;;;;;;;4980442;28;24424;-60
2021/11/29 13:52:44;;;;;;;15.20;13.70;;;;;;;;;;4972545;28;24740;-60
2021/11/29 13:55:12;;;;;;;14.80;13.20;;;;;;;;;;4986418;28;24435;-60
2021/11/29 13:57:39;;;;;;;14.93;13.43;;;;;;;;;;4984122;28;24986;-60
2021/11/29 14:00:09;;;;;;;14.40;13.02;;;;;;;;;;4983650;28;24448;-60
2021/11/29 14:02:34;;;;;;;13.70;12.40;;;;;;;;;;4976812;28;25037;-60
2021/11/29 14:04:59;;;;;;;14.27;12.87;;;;;;;;;;4985729;28;25030;-60
2021/11/29 14:07:24;;;;;;;14.07;12.77;;;;;;;;;;4979521;28;24432;-61
2021/11/29 14:09:53;;;;;;;14.70;13.20;;;;;;;;;;4979966;28;25340;-60
2021/11/29 14:12:18;;;;;;;13.18;11.88;;;;;;;;;;4979407;28;24437;-60
2021/11/29 14:14:48;;;;;;;14.32;13.00;;;;;;;;;;4976713;28;25359;-62
2021/11/29 14:17:14;;;;;;;13.55;12.15;;;;;;;;;;4979053;28;24459;-61
2021/11/29 14:19:42;;;;;;;14.20;12.90;;;;;;;;;;4990114;28;24421;-60
2021/11/29 14:22:07;;;;;;;13.03;11.73;;;;;;;;;;4980339;28;24528;-62
2021/11/29 14:24:34;;;;;;;13.70;12.30;;;;;;;;;;4978704;28;24508;-61